Time;durP1;ratioP1;P1;durP2;ratioP2;P2;SDS_P1;SDS_P2;PMS_P1;PMS_P2;Temp;Humidity;BMP_temperature;BMP_pressure;BME280_temperature;BME280_humidity;BME280_pressure;Samples;Min_cycle;Max_cycle;Signal;HPM_P1;HPM_P2
2022/08/10 00:00:30;;;;;;;23.33;22.02;;;24.90;41.80;;;;;;5035138;28;20040;-80
2022/08/10 00:02:58;;;;;;;23.92;22.63;;;24.90;42.00;;;;;;5052385;28;20037;-79
2022/08/10 00:05:24;;;;;;;24.67;23.00;;;24.70;42.50;;;;;;5052572;28;20017;-80
2022/08/10 00:07:50;;;;;;;24.23;22.83;;;24.70;43.20;;;;;;5036866;28;20030;-80
2022/08/10 00:10:17;;;;;;;23.75;22.35;;;24.60;42.80;;;;;;5048416;28;20022;-80
2022/08/10 00:12:43;;;;;;;25.08;23.67;;;24.50;42.90;;;;;;5032327;28;20041;-79
2022/08/10 00:15:11;;;;;;;23.13;21.92;;;24.50;43.00;;;;;;5031829;28;20116;-79
2022/08/10 00:17:37;;;;;;;23.45;21.88;;;24.50;43.30;;;;;;5033739;28;20030;-80
2022/08/10 00:20:04;;;;;;;23.55;22.15;;;24.40;43.50;;;;;;5049152;28;20029;-80
2022/08/10 00:22:30;;;;;;;23.27;21.98;;;24.30;43.60;;;;;;5048539;28;20032;-80
2022/08/10 00:24:56;;;;;;;23.05;21.80;;;24.20;43.80;;;;;;5033537;28;20021;-79
2022/08/10 00:27:23;;;;;;;24.38;22.52;;;24.10;43.70;;;;;;5048692;28;20050;-79
2022/08/10 00:29:49;;;;;;;22.58;21.33;;;24.10;43.80;;;;;;5048984;28;20399;-79
2022/08/10 00:32:16;;;;;;;22.83;21.63;;;24.20;44.00;;;;;;5048241;28;20044;-79
2022/08/10 00:34:42;;;;;;;22.63;21.42;;;24.10;44.00;;;;;;5034820;28;20045;-79
2022/08/10 00:37:08;;;;;;;23.95;22.45;;;24.10;44.10;;;;;;5034900;28;20033;-79
2022/08/10 00:39:34;;;;;;;22.52;21.27;;;24.10;43.90;;;;;;5041377;28;20045;-79
2022/08/10 00:42:00;;;;;;;22.95;21.33;;;24.10;44.00;;;;;;5015949;28;20404;-80
2022/08/10 00:44:26;;;;;;;22.50;21.30;;;24.10;44.30;;;;;;5006180;28;20045;-79
2022/08/10 00:46:52;;;;;;;22.90;21.60;;;24.10;44.40;;;;;;5047225;28;20443;-79
2022/08/10 00:49:18;;;;;;;22.20;20.90;;;24.00;44.30;;;;;;5051881;28;20032;-79
2022/08/10 00:51:44;;;;;;;21.30;19.90;;;23.90;44.70;;;;;;5034562;28;20050;-79
2022/08/10 00:54:10;;;;;;;22.50;21.15;;;23.90;44.90;;;;;;5035058;28;20045;-79
2022/08/10 00:56:36;;;;;;;22.60;21.20;;;23.90;44.80;;;;;;5035313;28;20044;-80
2022/08/10 00:59:03;;;;;;;21.88;20.67;;;23.90;44.80;;;;;;5052963;28;20035;-80
2022/08/10 01:01:29;;;;;;;22.10;20.88;;;23.90;44.70;;;;;;5051170;28;20033;-79
2022/08/10 01:03:55;;;;;;;22.40;20.70;;;23.80;45.30;;;;;;5034761;28;20127;-79
2022/08/10 01:07:01;;;;;;;22.55;21.00;;;23.70;45.30;;;;;;5051374;28;20029;-80
2022/08/10 01:09:36;;;;;;;21.75;20.25;;;23.70;45.40;;;;;;5030224;28;20052;-79
2022/08/10 01:12:15;;;;;;;22.58;20.90;;;23.70;45.60;;;;;;5030229;28;20037;-79
2022/08/10 01:14:46;;;;;;;23.00;21.42;;;23.70;45.70;;;;;;5028694;28;20037;-79
2022/08/10 01:17:29;;;;;;;23.05;21.67;;;23.70;45.60;;;;;;5012513;28;20033;-79
2022/08/10 01:20:21;;;;;;;23.25;21.73;;;23.70;45.50;;;;;;5028014;28;20057;-79
2022/08/10 01:22:53;;;;;;;22.45;21.08;;;23.70;45.70;;;;;;5010224;28;20404;-79
2022/08/10 01:25:41;;;;;;;23.27;21.88;;;23.70;45.60;;;;;;5029865;28;20052;-79
2022/08/10 01:28:23;;;;;;;22.40;21.15;;;23.60;45.90;;;;;;5029981;28;20033;-79
2022/08/10 01:30:49;;;;;;;22.33;21.02;;;23.60;46.00;;;;;;5011683;28;20029;-80
2022/08/10 01:33:23;;;;;;;22.08;20.70;;;23.60;46.10;;;;;;5029651;28;20093;-79
2022/08/10 01:35:52;;;;;;;21.60;20.30;;;23.50;46.20;;;;;;5012578;28;20097;-79
2022/08/10 01:38:26;;;;;;;20.70;19.50;;;23.50;46.60;;;;;;5013590;28;20037;-79
2022/08/10 01:40:55;;;;;;;20.83;19.63;;;23.30;46.80;;;;;;4994088;28;20505;-79
2022/08/10 01:43:21;;;;;;;20.98;19.83;;;23.40;46.80;;;;;;5011511;28;20026;-79
2022/08/10 01:45:52;;;;;;;20.95;19.55;;;23.30;47.00;;;;;;5028349;28;20419;-79
2022/08/10 01:48:30;;;;;;;20.85;19.75;;;23.30;47.30;;;;;;5017770;28;20052;-80
2022/08/10 01:51:10;;;;;;;21.50;20.27;;;23.30;47.10;;;;;;5035134;28;20506;-79
2022/08/10 01:53:50;;;;;;;22.15;20.83;;;23.30;47.10;;;;;;5035142;28;20448;-79
2022/08/10 01:56:18;;;;;;;21.10;19.77;;;23.40;47.10;;;;;;5035467;28;20021;-80
2022/08/10 01:58:45;;;;;;;20.90;19.60;;;23.40;47.10;;;;;;5034153;28;20029;-79
2022/08/10 02:01:13;;;;;;;21.08;19.77;;;23.30;47.50;;;;;;5033496;28;20025;-79
2022/08/10 02:03:39;;;;;;;20.63;19.30;;;23.30;47.50;;;;;;5033691;28;20045;-79
2022/08/10 02:06:06;;;;;;;21.45;20.20;;;23.30;47.50;;;;;;5016982;28;20040;-79
2022/08/10 02:08:32;;;;;;;20.95;19.83;;;23.30;47.80;;;;;;5017401;28;20037;-79
2022/08/10 02:10:58;;;;;;;21.80;20.13;;;23.20;48.10;;;;;;5033569;28;20029;-79
2022/08/10 02:13:24;;;;;;;22.02;20.02;;;23.10;49.00;;;;;;5033613;28;20033;-80
2022/08/10 02:15:51;;;;;;;22.20;20.65;;;23.10;48.30;;;;;;5016619;28;20037;-79
2022/08/10 02:18:18;;;;;;;21.33;19.85;;;23.10;48.50;;;;;;5017771;28;20033;-79
2022/08/10 02:20:45;;;;;;;21.38;20.05;;;23.10;48.40;;;;;;5032864;28;20048;-80
2022/08/10 02:23:26;;;;;;;22.15;20.55;;;23.10;48.60;;;;;;5050236;28;20021;-80
2022/08/10 02:25:53;;;;;;;22.55;21.15;;;22.90;48.90;;;;;;5034480;28;20028;-80
2022/08/10 02:28:21;;;;;;;22.00;20.40;;;22.80;49.40;;;;;;5017042;28;20384;-79
2022/08/10 02:30:48;;;;;;;22.50;21.00;;;22.80;49.60;;;;;;5032861;28;20069;-79
2022/08/10 02:33:14;;;;;;;21.63;20.27;;;22.70;49.80;;;;;;5032437;28;20499;-79
2022/08/10 02:35:41;;;;;;;21.95;20.35;;;22.70;50.20;;;;;;5016907;28;20060;-79
2022/08/10 02:38:07;;;;;;;23.25;21.67;;;22.60;50.30;;;;;;5049866;28;20029;-79
2022/08/10 02:40:35;;;;;;;22.50;21.17;;;22.60;50.40;;;;;;5032860;28;20399;-79
2022/08/10 02:43:21;;;;;;;22.90;21.30;;;22.60;50.80;;;;;;5049707;28;20029;-79
2022/08/10 02:45:51;;;;;;;21.70;20.45;;;22.60;50.80;;;;;;5035951;28;20025;-79
2022/08/10 02:48:42;;;;;;;22.75;21.45;;;22.50;50.90;;;;;;5049500;28;20040;-79
2022/08/10 02:51:13;;;;;;;21.65;20.25;;;22.50;51.00;;;;;;5049431;28;20482;-80
2022/08/10 02:53:55;;;;;;;;;;;22.50;51.30;;;;;;5050097;28;20033;-79
2022/08/10 02:56:22;;;;;;;19.77;18.48;;;22.40;51.50;;;;;;5033356;28;19904;-79
2022/08/10 02:59:05;;;;;;;20.58;19.17;;;22.50;51.30;;;;;;5032899;28;20041;-79
2022/08/10 03:01:32;;;;;;;20.20;18.80;;;22.50;51.30;;;;;;5032409;28;20037;-79
2022/08/10 03:04:03;;;;;;;20.38;19.17;;;22.50;51.60;;;;;;5049403;28;20033;-80
2022/08/10 03:06:53;;;;;;;20.35;19.08;;;22.50;51.70;;;;;;5049628;28;20483;-79
2022/08/10 03:09:19;;;;;;;21.65;20.20;;;22.40;52.00;;;;;;5032781;28;20044;-79
2022/08/10 03:11:46;;;;;;;21.27;19.98;;;22.30;52.10;;;;;;5049429;28;20495;-80
2022/08/10 03:14:12;;;;;;;21.15;19.50;;;22.30;52.30;;;;;;5032664;28;20060;-79
2022/08/10 03:16:38;;;;;;;20.45;19.10;;;22.30;52.40;;;;;;5048528;28;20040;-79
2022/08/10 03:19:04;;;;;;;20.65;19.33;;;22.20;52.70;;;;;;5049426;28;20387;-79
2022/08/10 03:21:31;;;;;;;20.38;19.13;;;22.10;53.10;;;;;;5032691;28;20029;-79
2022/08/10 03:23:58;;;;;;;21.42;19.92;;;22.00;53.40;;;;;;5049341;28;20040;-79
2022/08/10 03:26:24;;;;;;;21.67;20.05;;;22.00;53.50;;;;;;5049403;28;20032;-79
2022/08/10 03:28:50;;;;;;;21.85;20.45;;;22.00;53.50;;;;;;5032532;28;20044;-79
2022/08/10 03:31:16;;;;;;;20.85;19.75;;;21.90;53.80;;;;;;5048421;28;20044;-79
2022/08/10 03:33:42;;;;;;;21.85;20.00;;;22.00;53.80;;;;;;5049139;28;20033;-79
2022/08/10 03:36:08;;;;;;;21.63;20.15;;;21.90;54.00;;;;;;5049210;28;20032;-79
2022/08/10 03:38:35;;;;;;;22.45;20.63;;;21.90;54.50;;;;;;5030499;28;20051;-79
2022/08/10 03:41:02;;;;;;;21.55;20.25;;;21.90;54.30;;;;;;5013009;28;20041;-79
2022/08/10 03:43:28;;;;;;;21.77;20.13;;;21.90;54.20;;;;;;5015885;28;20025;-80
2022/08/10 03:45:57;;;;;;;22.08;20.88;;;21.90;54.40;;;;;;5019297;28;20037;-79
2022/08/10 03:48:27;;;;;;;19.90;18.80;;;21.90;54.30;;;;;;5036496;28;20383;-79
2022/08/10 03:50:53;;;;;;;22.10;20.85;;;21.90;54.60;;;;;;5036463;28;20472;-79
2022/08/10 03:53:19;;;;;;;21.67;20.38;;;21.70;54.60;;;;;;5036157;28;20040;-79
2022/08/10 03:55:46;;;;;;;21.15;19.95;;;21.70;54.90;;;;;;5036407;28;20116;-79
2022/08/10 03:58:12;;;;;;;21.20;19.92;;;21.70;54.80;;;;;;5036442;28;20029;-79
2022/08/10 04:00:38;;;;;;;19.98;18.80;;;21.70;55.00;;;;;;5018962;28;20029;-79
2022/08/10 04:03:04;;;;;;;20.77;19.48;;;21.60;55.40;;;;;;5036325;28;20052;-79
2022/08/10 04:05:31;;;;;;;21.63;20.42;;;21.60;55.40;;;;;;5052772;28;20033;-79
2022/08/10 04:07:58;;;;;;;21.95;20.55;;;21.60;55.60;;;;;;5035979;28;20040;-79
2022/08/10 04:10:24;;;;;;;21.23;19.98;;;21.50;55.70;;;;;;5019730;28;20052;-79
2022/08/10 04:12:50;;;;;;;21.58;20.08;;;21.50;55.70;;;;;;5036130;28;20029;-79
2022/08/10 04:15:16;;;;;;;22.73;20.98;;;21.60;55.60;;;;;;5034713;28;20056;-78
2022/08/10 04:17:43;;;;;;;21.05;19.83;;;21.50;55.40;;;;;;5036137;28;20029;-79
2022/08/10 04:20:15;;;;;;;20.52;19.27;;;21.50;55.90;;;;;;5035397;28;20487;-79
2022/08/10 04:22:41;;;;;;;20.77;19.38;;;21.50;55.90;;;;;;5052217;28;20044;-79
2022/08/10 04:25:07;;;;;;;21.42;20.17;;;21.50;55.70;;;;;;5035748;28;20029;-79
2022/08/10 04:27:33;;;;;;;20.88;19.58;;;21.50;55.80;;;;;;5035831;28;20017;-79
2022/08/10 04:29:59;;;;;;;21.23;19.83;;;21.50;55.90;;;;;;5035183;28;20037;-79
2022/08/10 04:32:25;;;;;;;20.75;19.50;;;21.40;56.40;;;;;;5033114;28;20411;-79
2022/08/10 04:34:51;;;;;;;20.88;19.30;;;21.40;56.40;;;;;;5035247;28;20049;-79
2022/08/10 04:37:18;;;;;;;20.17;18.98;;;21.40;56.10;;;;;;5052100;28;20021;-80
2022/08/10 04:39:44;;;;;;;20.80;19.60;;;21.40;56.20;;;;;;5051879;28;20029;-80
2022/08/10 04:42:10;;;;;;;20.42;19.08;;;21.40;56.20;;;;;;5051957;28;20060;-79
2022/08/10 04:44:36;;;;;;;20.10;18.90;;;21.40;56.30;;;;;;5039307;28;20025;-79
2022/08/10 04:47:03;;;;;;;20.17;18.63;;;21.40;56.40;;;;;;5048526;28;20052;-79
2022/08/10 04:49:29;;;;;;;20.58;19.38;;;21.40;56.50;;;;;;5053222;28;20052;-79
2022/08/10 04:51:55;;;;;;;20.23;19.02;;;21.30;56.80;;;;;;5052881;28;20041;-79
2022/08/10 04:54:21;;;;;;;20.05;18.95;;;21.20;57.00;;;;;;5052948;28;20036;-80
2022/08/10 04:56:47;;;;;;;22.13;20.40;;;21.10;57.00;;;;;;5051145;28;20032;-79
2022/08/10 04:59:13;;;;;;;20.42;19.02;;;21.20;57.10;;;;;;5051382;28;20021;-79
2022/08/10 05:01:39;;;;;;;21.27;20.08;;;21.20;56.80;;;;;;5052197;28;20498;-79
2022/08/10 05:04:05;;;;;;;21.13;19.83;;;21.20;56.90;;;;;;5051773;28;20028;-80
2022/08/10 05:06:32;;;;;;;22.15;20.65;;;21.20;56.90;;;;;;5052664;28;20032;-79
2022/08/10 05:08:58;;;;;;;21.40;19.98;;;21.10;57.20;;;;;;5035082;28;20033;-79
2022/08/10 05:11:24;;;;;;;21.83;20.35;;;21.10;57.50;;;;;;5034614;28;20037;-79
2022/08/10 05:13:50;;;;;;;21.73;20.33;;;21.00;57.50;;;;;;5034282;28;20045;-79
2022/08/10 05:16:17;;;;;;;21.23;19.88;;;21.00;57.70;;;;;;5050672;28;20045;-79
2022/08/10 05:18:43;;;;;;;20.55;19.38;;;21.00;57.80;;;;;;5034504;28;20037;-79
2022/08/10 05:21:09;;;;;;;20.90;19.40;;;21.00;57.80;;;;;;5052408;28;20033;-79
2022/08/10 05:23:35;;;;;;;20.55;19.40;;;21.00;57.80;;;;;;5051281;28;20021;-79
2022/08/10 05:26:01;;;;;;;20.40;19.15;;;20.90;57.90;;;;;;5034936;28;20041;-79
2022/08/10 05:28:27;;;;;;;21.70;20.50;;;21.00;58.00;;;;;;5050803;28;20491;-79
2022/08/10 05:30:53;;;;;;;20.42;18.88;;;21.00;58.50;;;;;;5050379;28;20040;-79
2022/08/10 05:33:19;;;;;;;19.42;18.13;;;21.10;57.60;;;;;;5034725;28;20041;-79
2022/08/10 05:35:45;;;;;;;18.70;17.58;;;21.20;57.40;;;;;;5051940;28;20036;-79
2022/08/10 05:38:11;;;;;;;20.23;18.35;;;21.20;57.40;;;;;;5051143;28;20032;-80
2022/08/10 05:40:38;;;;;;;19.17;17.80;;;21.30;57.20;;;;;;5031810;28;20045;-80
2022/08/10 05:43:04;;;;;;;18.95;17.75;;;21.30;57.50;;;;;;5014379;28;20021;-80
2022/08/10 05:45:30;;;;;;;18.85;17.63;;;21.40;57.10;;;;;;5049957;28;20056;-79
2022/08/10 05:47:56;;;;;;;21.05;19.67;;;21.40;57.00;;;;;;5034122;28;20045;-79
2022/08/10 05:50:26;;;;;;;19.88;18.75;;;21.40;56.80;;;;;;5034256;28;20503;-79
2022/08/10 05:52:53;;;;;;;20.92;19.33;;;21.40;57.10;;;;;;5034272;28;20100;-80
2022/08/10 05:55:19;;;;;;;22.67;21.05;;;21.50;57.00;;;;;;5017434;28;20376;-79
2022/08/10 05:57:45;;;;;;;20.80;19.17;;;21.60;56.70;;;;;;5033749;28;20025;-79
2022/08/10 06:00:14;;;;;;;19.70;18.08;;;21.80;56.40;;;;;;5033701;28;20032;-79
2022/08/10 06:02:46;;;;;;;20.48;19.25;;;21.90;56.00;;;;;;5033752;28;20028;-79
2022/08/10 06:05:22;;;;;;;20.65;19.25;;;21.90;55.90;;;;;;5018399;28;20045;-79
2022/08/10 06:08:04;;;;;;;20.63;19.38;;;22.00;55.70;;;;;;5033823;28;20037;-80
2022/08/10 06:10:31;;;;;;;21.52;20.30;;;22.10;55.50;;;;;;5034294;28;20033;-79
2022/08/10 06:15:43;;;;;;;21.48;20.02;;;22.40;55.00;;;;;;5040611;28;20044;-79
2022/08/10 06:18:09;;;;;;;21.63;20.33;;;22.60;54.40;;;;;;5033712;28;20025;-79
2022/08/10 06:20:35;;;;;;;23.67;22.27;;;22.50;54.20;;;;;;5017202;28;20041;-79
2022/08/10 06:23:02;;;;;;;21.85;20.48;;;22.50;54.30;;;;;;5033823;28;20400;-79
2022/08/10 06:25:29;;;;;;;24.33;23.02;;;22.60;54.10;;;;;;5033645;28;20112;-79
2022/08/10 06:27:55;;;;;;;21.05;19.73;;;22.50;54.30;;;;;;5033779;28;20044;-79
2022/08/10 06:30:24;;;;;;;23.02;21.42;;;22.60;54.30;;;;;;5031573;28;20467;-80
2022/08/10 06:32:51;;;;;;;24.13;21.70;;;22.70;54.20;;;;;;5033317;28;20032;-80
2022/08/10 06:35:17;;;;;;;24.92;23.33;;;22.80;53.70;;;;;;5033430;28;20135;-79
2022/08/10 06:37:43;;;;;;;23.88;22.17;;;22.90;53.30;;;;;;5049774;28;20430;-80
2022/08/10 06:40:10;;;;;;;24.20;22.67;;;23.00;53.40;;;;;;5034542;28;20077;-79
2022/08/10 06:42:39;;;;;;;32.17;25.90;;;23.00;53.20;;;;;;4996964;28;20523;-80
2022/08/10 06:45:08;;;;;;;30.77;28.38;;;23.10;53.10;;;;;;5029021;28;20037;-80
2022/08/10 06:48:12;;;;;;;27.58;25.27;;;23.30;52.40;;;;;;5033028;28;20048;-79
2022/08/10 06:50:46;;;;;;;29.50;27.25;;;23.50;52.10;;;;;;4992265;28;20042;-79
2022/08/10 06:53:19;;;;;;;31.80;28.67;;;23.60;51.80;;;;;;5008443;28;20034;-79
2022/08/10 06:55:52;;;;;;;31.27;28.45;;;23.50;51.70;;;;;;5008038;28;20049;-79
2022/08/10 06:58:20;;;;;;;34.55;31.70;;;23.50;51.80;;;;;;5008206;28;20034;-79
2022/08/10 07:00:46;;;;;;;36.33;33.20;;;23.70;51.50;;;;;;4991804;28;20512;-79
2022/08/10 07:03:13;;;;;;;38.08;34.83;;;23.70;51.30;;;;;;4992117;28;20037;-80
2022/08/10 07:05:42;;;;;;;41.53;37.88;;;23.90;51.00;;;;;;5008592;28;20512;-79
2022/08/10 07:08:08;;;;;;;37.65;34.40;;;23.90;50.80;;;;;;4992120;28;20145;-80
2022/08/10 07:10:34;;;;;;;40.10;36.28;;;24.00;50.90;;;;;;4991761;28;20547;-80
2022/08/10 07:13:01;;;;;;;42.05;38.03;;;24.20;50.50;;;;;;5008618;28;20046;-79
2022/08/10 07:15:27;;;;;;;40.00;36.22;;;24.40;49.70;;;;;;5008405;28;20042;-79
2022/08/10 07:17:53;;;;;;;41.95;37.85;;;24.40;49.80;;;;;;5008498;28;20381;-79
2022/08/10 07:20:20;;;;;;;44.20;40.25;;;24.50;49.50;;;;;;5011487;28;20045;-79
2022/08/10 07:22:47;;;;;;;50.45;44.03;;;24.70;49.10;;;;;;5012607;28;20034;-79
2022/08/10 07:25:15;;;;;;;49.33;44.17;;;24.60;48.80;;;;;;5015768;28;20469;-79
2022/08/10 07:27:42;;;;;;;50.38;45.30;;;24.60;48.50;;;;;;5036894;28;20471;-79
2022/08/10 07:30:08;;;;;;;53.58;47.28;;;24.70;48.30;;;;;;5036397;28;20029;-79
2022/08/10 07:32:34;;;;;;;52.63;46.95;;;24.70;48.30;;;;;;5036781;28;20032;-80
2022/08/10 07:35:00;;;;;;;53.78;47.83;;;24.90;48.00;;;;;;5036550;28;20434;-80
2022/08/10 07:37:28;;;;;;;55.03;48.85;;;25.20;47.60;;;;;;5053072;28;20036;-79
2022/08/10 07:39:54;;;;;;;55.28;47.67;;;25.30;47.00;;;;;;5052996;28;20036;-79
2022/08/10 07:42:21;;;;;;;60.53;54.08;;;25.40;46.40;;;;;;5036790;28;20037;-79
2022/08/10 07:44:49;;;;;;;57.15;45.78;;;25.40;46.60;;;;;;5039545;28;20105;-79
2022/08/10 07:47:43;;;;;;;58.35;49.40;;;25.50;46.50;;;;;;5018967;28;20045;-80
2022/08/10 07:50:10;;;;;;;58.83;51.17;;;25.70;46.00;;;;;;5051920;28;20033;-79
2022/08/10 07:52:38;;;;;;;62.55;51.45;;;25.80;45.20;;;;;;5052528;28;20048;-79
2022/08/10 07:55:06;;;;;;;61.40;53.97;;;25.90;45.20;;;;;;5052836;28;20040;-80
2022/08/10 07:57:33;;;;;;;59.35;52.92;;;26.00;45.10;;;;;;5052840;28;20044;-79
2022/08/10 08:00:02;;;;;;;65.05;55.03;;;26.10;44.90;;;;;;5052770;28;20021;-80
2022/08/10 08:02:38;;;;;;;64.28;57.08;;;26.20;44.70;;;;;;5051824;28;20060;-79
2022/08/10 08:05:08;;;;;;;65.60;58.25;;;26.40;44.40;;;;;;5052440;28;20028;-79
2022/08/10 08:07:36;;;;;;;65.72;57.95;;;26.50;43.40;;;;;;5036423;28;20415;-80
2022/08/10 08:10:02;;;;;;;66.63;59.55;;;26.60;43.70;;;;;;5052583;28;20041;-79
2022/08/10 08:12:28;;;;;;;66.05;58.92;;;26.70;43.40;;;;;;5035850;28;20518;-80
2022/08/10 08:14:54;;;;;;;71.63;63.80;;;26.80;43.40;;;;;;5052654;28;20056;-79
2022/08/10 08:17:21;;;;;;;72.68;64.78;;;27.00;42.30;;;;;;5052069;28;20036;-79
2022/08/10 08:19:48;;;;;;;81.55;72.68;;;27.00;42.20;;;;;;5035626;28;20390;-79
2022/08/10 08:22:16;;;;;;;76.65;64.05;;;27.20;41.90;;;;;;5052111;28;20045;-79
2022/08/10 08:24:43;;;;;;;73.10;64.90;;;27.30;41.40;;;;;;5052421;28;20479;-80
2022/08/10 08:27:09;;;;;;;74.53;66.63;;;27.40;41.20;;;;;;5035708;28;20045;-79
2022/08/10 08:29:38;;;;;;;75.35;67.18;;;27.30;41.20;;;;;;5035863;28;20029;-79
2022/08/10 08:32:04;;;;;;;84.85;76.63;;;27.40;40.90;;;;;;5034040;28;20051;-79
2022/08/10 08:34:36;;;;;;;70.32;62.80;;;27.50;40.80;;;;;;5035004;28;20037;-79
2022/08/10 08:37:02;;;;;;;76.15;68.18;;;27.50;40.40;;;;;;5051858;28;20044;-80
2022/08/10 08:39:30;;;;;;;72.43;64.88;;;27.70;40.30;;;;;;5025900;28;20053;-79
2022/08/10 08:42:03;;;;;;;74.70;67.00;;;27.80;40.20;;;;;;4999137;28;20034;-79
2022/08/10 08:44:56;;;;;;;1518.13;766.35;;;27.90;40.20;;;;;;5044411;28;20383;-79
2022/08/10 08:47:26;;;;;;;74.47;66.95;;;28.20;39.40;;;;;;5019838;28;20045;-79
2022/08/10 08:50:01;;;;;;;76.32;68.32;;;28.30;39.30;;;;;;5051772;28;20036;-80
2022/08/10 08:52:32;;;;;;;1999.90;999.90;;;28.30;39.40;;;;;;5051938;28;20029;-79
2022/08/10 08:55:19;;;;;;;1999.90;999.90;;;28.60;38.90;;;;;;5035560;28;20379;-80
2022/08/10 08:57:48;;;;;;;1999.90;999.90;;;28.80;38.70;;;;;;5051561;28;20045;-79
2022/08/10 09:00:26;;;;;;;1999.90;999.90;;;28.80;38.30;;;;;;5034064;28;20506;-80
2022/08/10 09:03:10;;;;;;;1999.90;999.90;;;29.00;38.60;;;;;;5036731;28;20459;-79
2022/08/10 09:05:42;;;;;;;1999.90;999.90;;;29.10;38.30;;;;;;5051252;28;20040;-79
2022/08/10 09:08:20;;;;;;;1999.90;999.90;;;29.20;38.00;;;;;;5051740;28;20364;-79
2022/08/10 09:11:00;;;;;;;1999.90;999.90;;;29.30;37.60;;;;;;5051244;28;20047;-80
2022/08/10 09:13:32;;;;;;;1999.90;999.90;;;29.20;37.50;;;;;;5035950;28;20033;-79
2022/08/10 09:16:31;;;;;;;1999.90;999.90;;;29.30;37.60;;;;;;5018491;28;20467;-80
2022/08/10 09:19:15;;;;;;;1999.90;999.90;;;29.50;37.50;;;;;;5019629;28;20115;-79
2022/08/10 09:22:01;;;;;;;1999.90;999.90;;;29.70;36.20;;;;;;5050876;28;20048;-80
2022/08/10 09:24:56;;;;;;;1999.90;999.90;;;29.70;36.10;;;;;;5036586;28;20040;-80
2022/08/10 09:27:31;;;;;;;1999.90;999.90;;;30.00;36.20;;;;;;5050982;28;20498;-80
2022/08/10 09:30:01;;;;;;;1999.90;999.90;;;30.20;35.60;;;;;;5034582;28;20037;-80
2022/08/10 09:32:42;;;;;;;1999.90;999.90;;;30.30;35.30;;;;;;5017665;28;20044;-80
2022/08/10 09:35:30;;;;;;;1999.90;999.90;;;30.30;34.90;;;;;;5033316;28;20037;-80
2022/08/10 09:38:23;;;;;;;1999.90;999.90;;;30.40;34.80;;;;;;5050952;28;20033;-80
2022/08/10 09:40:49;;;;;;;1999.90;999.90;;;30.50;34.50;;;;;;5014535;28;20061;-80
2022/08/10 09:43:44;;;;;;;1999.90;999.90;;;30.70;35.20;;;;;;5031163;28;20307;-80
2022/08/10 09:46:26;;;;;;;1999.90;999.90;;;30.80;33.90;;;;;;5029022;28;20061;-80
2022/08/10 09:49:15;;;;;;;1999.90;999.90;;;30.90;33.00;;;;;;5012519;28;20041;-80
2022/08/10 09:51:46;;;;;;;1999.90;999.90;;;31.00;33.30;;;;;;5012742;28;20052;-80
2022/08/10 09:54:53;;;;;;;1999.90;999.90;;;31.10;33.10;;;;;;5029188;28;20041;-80
2022/08/10 09:57:57;;;;;;;1999.90;999.90;;;31.30;33.70;;;;;;5013054;28;20385;-80
2022/08/10 10:00:29;;;;;;;1999.90;999.90;;;31.40;33.70;;;;;;5015114;28;20033;-80
2022/08/10 10:03:30;;;;;;;1999.90;999.90;;;31.40;34.00;;;;;;5012730;28;20037;-80
2022/08/10 10:06:09;;;;;;;1999.90;999.90;;;31.40;33.40;;;;;;5015053;28;20042;-80
2022/08/10 10:08:44;;;;;;;1999.90;999.90;;;31.40;33.50;;;;;;5013220;28;20030;-80
2022/08/10 10:11:47;;;;;;;1999.90;999.90;;;31.40;32.90;;;;;;5028673;28;20029;-80
2022/08/10 10:14:34;;;;;;;1999.90;999.90;;;31.20;33.00;;;;;;5028728;28;20052;-80
2022/08/10 10:17:08;;;;;;;1999.90;999.90;;;31.40;33.00;;;;;;5011789;28;20049;-80
2022/08/10 10:20:03;;;;;;;1999.90;999.90;;;31.50;33.00;;;;;;5012578;28;20495;-80
2022/08/10 10:22:53;;;;;;;1999.90;999.90;;;31.80;32.40;;;;;;5026091;28;20060;-80
2022/08/10 10:25:44;;;;;;;1999.90;999.90;;;32.10;31.90;;;;;;5050042;28;20383;-80
2022/08/10 10:28:10;;;;;;;;;;;32.40;30.50;;;;;;5019712;28;20287;-80
2022/08/10 10:30:50;;;;;;;1999.90;999.90;;;32.40;29.80;;;;;;5050498;28;19928;-80
2022/08/10 10:33:25;;;;;;;1999.90;999.90;;;32.40;29.90;;;;;;5034454;28;20040;-79
2022/08/10 10:35:55;;;;;;;1999.90;999.90;;;32.40;29.10;;;;;;5033943;28;20045;-79
2022/08/10 10:38:25;;;;;;;1999.90;999.90;;;32.40;29.30;;;;;;5032968;28;20045;-80
2022/08/10 10:41:02;;;;;;;1999.90;999.90;;;32.50;29.40;;;;;;5049799;28;20388;-80
2022/08/10 10:43:39;;;;;;;1999.90;999.90;;;32.60;29.70;;;;;;5047081;28;20048;-80
2022/08/10 10:46:43;;;;;;;1999.90;999.90;;;32.70;29.20;;;;;;5038251;28;20519;-80
2022/08/10 10:49:31;;;;;;;1999.90;999.90;;;32.80;29.30;;;;;;5049823;28;20401;-80
2022/08/10 10:52:15;;;;;;;1999.90;999.90;;;32.70;29.00;;;;;;5049435;28;20487;-80
2022/08/10 10:55:14;;;;;;;1999.90;999.90;;;32.60;28.40;;;;;;5050399;28;20039;-79
2022/08/10 10:57:59;;;;;;;1999.90;999.90;;;32.80;28.40;;;;;;5049636;28;20036;-80
2022/08/10 11:00:28;;;;;;;1999.90;999.90;;;32.80;28.00;;;;;;5049906;28;20036;-80
2022/08/10 11:03:13;;;;;;;1999.90;999.90;;;32.80;28.20;;;;;;5049832;28;20031;-80
2022/08/10 11:06:02;;;;;;;1999.90;999.90;;;32.80;27.90;;;;;;5050815;28;20029;-79
2022/08/10 11:08:32;;;;;;;1999.90;999.90;;;32.80;27.10;;;;;;5049771;28;20028;-79
2022/08/10 11:11:01;;;;;;;1999.90;999.90;;;32.90;27.40;;;;;;5049434;28;20044;-79
2022/08/10 11:13:48;;;;;;;1999.90;999.90;;;33.00;27.20;;;;;;5032908;28;20029;-79
2022/08/10 11:16:47;;;;;;;1999.90;999.90;;;32.90;26.80;;;;;;5031892;28;20048;-79
2022/08/10 11:19:22;;;;;;;1999.90;999.90;;;32.80;27.30;;;;;;5049612;28;20033;-77
2022/08/10 11:22:12;;;;;;;1999.90;999.90;;;32.80;27.40;;;;;;5049490;28;20025;-79
2022/08/10 11:24:51;;;;;;;1999.90;999.90;;;33.00;27.40;;;;;;5049737;28;20032;-80
2022/08/10 11:27:52;;;;;;;1999.90;999.90;;;32.90;27.40;;;;;;5032613;28;20041;-79
2022/08/10 11:30:24;;;;;;;1999.90;999.90;;;33.00;27.70;;;;;;5047238;28;20388;-80
2022/08/10 11:32:59;;;;;;;1999.90;999.90;;;33.20;27.70;;;;;;5049543;28;20379;-80
2022/08/10 11:35:35;;;;;;;1999.90;999.90;;;33.40;27.70;;;;;;5050326;28;20080;-80
2022/08/10 11:38:13;;;;;;;1999.90;999.90;;;33.30;27.10;;;;;;5049741;28;20025;-80
2022/08/10 11:41:06;;;;;;;1999.90;999.90;;;33.30;27.20;;;;;;5029618;28;20044;-80
2022/08/10 11:43:34;;;;;;;1999.90;999.90;;;33.40;26.90;;;;;;5032644;28;20042;-80
2022/08/10 11:46:23;;;;;;;1999.90;999.90;;;33.40;26.20;;;;;;5048392;28;20053;-80
2022/08/10 11:48:55;;;;;;;1999.90;999.90;;;33.50;25.10;;;;;;5049376;28;20025;-79
2022/08/10 11:51:29;;;;;;;1999.90;999.90;;;33.40;25.70;;;;;;5033262;28;20032;-80
2022/08/10 11:54:04;;;;;;;1999.90;999.90;;;33.40;25.50;;;;;;5032670;28;20438;-79
2022/08/10 11:56:51;;;;;;;1999.90;999.90;;;33.30;25.60;;;;;;5033025;28;20045;-79
2022/08/10 12:02:06;;;;;;;1999.90;999.90;;;33.30;25.60;;;;;;5036030;28;20033;-80
2022/08/10 12:04:32;;;;;;;1999.90;999.90;;;33.20;25.90;;;;;;5015964;28;20029;-80
2022/08/10 12:06:58;;;;;;;1999.90;999.90;;;33.30;26.00;;;;;;5019575;28;20037;-80
2022/08/10 12:09:24;;;;;;;1999.90;999.90;;;33.40;26.00;;;;;;5036046;28;20032;-79
2022/08/10 12:11:51;;;;;;;1999.90;999.90;;;33.50;25.70;;;;;;5019389;28;20059;-79
2022/08/10 12:14:34;;;;;;;1999.90;999.90;;;33.60;25.80;;;;;;5035849;28;20036;-79
2022/08/10 12:17:21;;;;;;;1999.90;999.90;;;33.50;25.90;;;;;;5020928;28;20040;-79
2022/08/10 12:19:53;;;;;;;1999.90;999.90;;;33.50;26.20;;;;;;5019993;28;20037;-79
2022/08/10 12:22:26;;;;;;;1999.90;999.90;;;33.80;26.20;;;;;;5052194;28;20048;-79
2022/08/10 12:24:55;;;;;;;1999.90;999.90;;;34.00;26.40;;;;;;5020301;28;20063;-79
2022/08/10 12:27:43;;;;;;;1999.90;999.90;;;34.00;25.70;;;;;;5035771;28;20036;-79
2022/08/10 12:30:12;;;;;;;1999.90;999.90;;;33.90;25.70;;;;;;5051714;28;20048;-79
2022/08/10 12:32:53;;;;;;;1999.90;999.90;;;34.00;25.50;;;;;;5035995;28;20037;-80
2022/08/10 12:35:38;;;;;;;1999.90;999.90;;;34.10;25.30;;;;;;5053110;28;20278;-79
2022/08/10 12:38:05;;;;;;;1999.90;999.90;;;34.00;25.30;;;;;;5051899;28;20040;-79
2022/08/10 12:41:14;;;;;;;1999.90;999.90;;;33.90;25.80;;;;;;5033611;28;20384;-80
2022/08/10 12:44:05;;;;;;;1999.90;999.90;;;34.10;25.90;;;;;;5031712;28;20076;-79
2022/08/10 12:46:49;;;;;;;1999.90;999.90;;;33.90;25.50;;;;;;5046114;28;20041;-79
2022/08/10 12:49:27;;;;;;;1999.90;999.90;;;33.80;25.60;;;;;;5052477;28;20028;-79